Time;durP1;ratioP1;P1;durP2;ratioP2;P2;SDS_P1;SDS_P2;PMS_P1;PMS_P2;Temp;Humidity;BMP_temperature;BMP_pressure;BME280_temperature;BME280_humidity;BME280_pressure;Samples;Min_cycle;Max_cycle;Signal;HPM_P1;HPM_P2
2023/09/25 00:11:50;;;;;;;5.13;4.63;;;13.50;99.90;;;;;;4597128;30;20375;-86
2023/09/25 01:07:52;;;;;;;4.53;3.50;;;13.50;99.90;;;;;;4487430;30;20245;-84
2023/09/25 01:37:42;;;;;;;5.63;3.90;;;13.20;99.90;;;;;;4510403;30;20662;-87
2023/09/25 02:13:36;;;;;;;4.47;3.83;;;13.20;99.90;;;;;;4540572;30;20541;-86
2023/09/25 02:38:46;;;;;;;6.10;4.80;;;12.80;99.90;;;;;;4717480;29;20468;-86
2023/09/25 02:59:23;;;;;;;5.33;4.63;;;12.40;99.90;;;;;;4634624;30;20230;-86
2023/09/25 03:29:17;;;;;;;5.90;5.17;;;12.00;99.90;;;;;;4619255;30;21285;-85
2023/09/25 03:45:14;;;;;;;8.53;6.27;;;11.90;99.90;;;;;;4677093;29;20433;-86
2023/09/25 04:35:46;;;;;;;7.20;4.33;;;12.30;99.90;;;;;;5881353;23;20720;-84
2023/09/25 05:01:14;;;;;;;6.83;4.70;;;12.30;99.90;;;;;;5843894;24;20179;-84
2023/09/25 05:36:31;;;;;;;6.00;4.97;;;12.40;99.90;;;;;;5698456;24;20234;-84
2023/09/25 06:16:42;;;;;;;3.93;3.50;;;13.40;99.90;;;;;;5891228;24;20936;-88
2023/09/25 06:37:23;;;;;;;4.50;3.03;;;14.50;99.90;;;;;;5785948;24;20913;-87
2023/09/25 06:57:20;;;;;;;4.00;2.60;;;15.50;99.90;;;;;;5612395;25;20206;-87
2023/09/25 07:53:44;;;;;;;5.90;2.00;;;18.00;95.40;;;;;;5647098;24;20182;-86
2023/09/25 08:19:02;;;;;;;2.83;1.57;;;18.10;94.60;;;;;;5826787;24;20196;-87
2023/09/25 08:48:59;;;;;;;1.90;1.70;;;18.70;91.20;;;;;;5847960;24;20485;-88
2023/09/25 09:14:50;;;;;;;2.40;1.80;;;18.90;90.60;;;;;;6025732;23;20252;-87
2023/09/25 09:35:07;;;;;;;2.43;1.57;;;19.30;86.70;;;;;;5855565;24;20335;-88
2023/09/25 10:05:27;;;;;;;2.10;2.00;;;19.80;85.00;;;;;;5930539;23;21014;-87
2023/09/25 10:30:36;;;;;;;3.23;2.27;;;20.00;85.30;;;;;;5688794;24;20350;-88
2023/09/25 11:21:12;;;;;;;2.90;2.17;;;20.60;83.00;;;;;;5829232;24;20362;-85
2023/09/25 11:31:43;;;;;;;1.98;1.80;;;20.60;81.40;;;;;;6114522;23;20182;-85
2023/09/25 11:52:16;;;;;;;3.15;2.20;;;21.10;80.80;;;;;;5985537;23;20231;-84
2023/09/25 12:22:46;;;;;;;1.92;1.83;;;21.20;81.10;;;;;;5928707;23;20181;-88
2023/09/25 13:03:19;;;;;;;2.08;1.88;;;21.80;76.90;;;;;;6091752;23;20379;-89
2023/09/25 13:28:09;;;;;;;3.20;2.10;;;22.00;76.00;;;;;;5890993;23;20413;-88
2023/09/25 13:38:30;;;;;;;1.83;1.73;;;22.00;72.50;;;;;;6136669;23;20259;31
2023/09/25 13:59:14;;;;;;;1.83;1.70;;;21.60;72.90;;;;;;5935816;23;20860;-88
2023/09/25 14:03:31;;;;;;;2.20;1.63;;;21.50;74.60;;;;;;5882312;23;20258;-85
2023/09/25 14:29:07;;;;;;;2.10;2.00;;;21.30;75.60;;;;;;5763532;24;20519;-84
2023/09/25 14:54:48;;;;;;;2.05;1.83;;;21.00;77.70;;;;;;5750672;24;20187;-86
2023/09/25 15:35:03;;;;;;;2.20;1.90;;;20.50;81.90;;;;;;5748299;24;20202;-92
2023/09/25 15:45:39;;;;;;;1.98;1.85;;;20.30;83.60;;;;;;6144589;23;20213;-89
2023/09/25 16:10:36;;;;;;;3.67;2.13;;;19.90;86.60;;;;;;5879489;24;20168;-85
2023/09/25 16:40:48;;;;;;;2.67;2.20;;;19.50;89.50;;;;;;5915075;23;20429;-88
2023/09/25 17:01:35;;;;;;;3.70;2.50;;;18.40;96.10;;;;;;5961750;23;20265;-86
2023/09/25 17:32:01;;;;;;;2.80;2.60;;;17.10;99.90;;;;;;5818282;24;20219;-85
2023/09/25 17:52:27;;;;;;;3.33;3.03;;;16.80;99.90;;;;;;5629953;25;20189;-85
2023/09/25 17:56:47;;;;;;;4.97;3.63;;;16.80;99.90;;;;;;5629605;25;20715;-87
2023/09/25 18:43:05;;;;;;;5.10;4.27;;;15.90;99.90;;;;;;5812907;24;20212;-86
2023/09/25 19:08:27;;;;;;;5.17;4.20;;;15.60;99.90;;;;;;5785611;24;20216;-91
2023/09/25 19:38:42;;;;;;;6.13;4.83;;;15.60;99.90;;;;;;5810736;24;20197;-88
2023/09/25 20:04:17;;;;;;;5.83;4.80;;;15.40;99.90;;;;;;5760811;24;20330;-86
2023/09/25 20:29:29;;;;;;;5.77;5.07;;;14.80;99.90;;;;;;5816806;24;20196;-86
2023/09/25 20:54:51;;;;;;;7.07;6.37;;;15.00;99.90;;;;;;5795834;24;20197;-86
2023/09/25 21:15:01;;;;;;;8.43;6.43;;;15.30;99.90;;;;;;5548146;25;20242;-90
2023/09/25 21:45:00;;;;;;;10.23;6.93;;;14.90;99.90;;;;;;5706469;24;20511;-85
2023/09/25 22:00:29;;;;;;;11.03;6.47;;;15.20;99.90;;;;;;5703308;24;20540;-90
2023/09/25 22:21:03;;;;;;;6.43;5.83;;;15.70;99.90;;;;;;5743254;24;20187;-85
2023/09/25 23:11:47;;;;;;;7.70;6.80;;;14.70;99.90;;;;;;5728417;24;20212;-87
2023/09/25 23:37:06;;;;;;;7.33;5.90;;;14.30;99.90;;;;;;5706408;24;20328;-86
